Time;durP1;ratioP1;P1;durP2;ratioP2;P2;SDS_P1;SDS_P2;PMS_P1;PMS_P2;Temp;Humidity;BMP_temperature;BMP_pressure;BME280_temperature;BME280_humidity;BME280_pressure;Samples;Min_cycle;Max_cycle;Signal;HPM_P1;HPM_P2
2021/08/10 00:01:00;;;;;;;2.88;1.77;;;23.80;53.30;;;;;;6151318;29;20035;-74
2021/08/10 00:04:02;;;;;;;2.75;1.38;;;23.80;53.30;;;;;;6151143;28;20090;-74
2021/08/10 00:07:04;;;;;;;8.07;2.20;;;23.70;53.20;;;;;;6152613;28;20035;-74
2021/08/10 00:10:06;;;;;;;4.28;1.75;;;23.70;53.20;;;;;;6152559;28;20341;-74
2021/08/10 00:13:07;;;;;;;7.13;2.20;;;23.70;53.20;;;;;;6150934;28;20472;-75
2021/08/10 00:16:08;;;;;;;6.20;1.75;;;23.70;53.20;;;;;;6151157;29;20038;-75
2021/08/10 00:19:09;;;;;;;5.22;1.90;;;23.70;53.40;;;;;;6151174;29;20035;-75
2021/08/10 00:22:10;;;;;;;3.55;1.95;;;23.70;53.40;;;;;;6151172;29;20436;-75
2021/08/10 00:25:11;;;;;;;4.40;1.55;;;23.70;53.50;;;;;;6152521;28;20047;-75
2021/08/10 00:28:12;;;;;;;4.68;1.80;;;23.70;53.50;;;;;;6152291;28;20043;-75
2021/08/10 00:31:13;;;;;;;7.82;2.15;;;23.70;53.70;;;;;;6135360;29;20050;-75
2021/08/10 00:34:14;;;;;;;9.90;1.98;;;23.70;53.80;;;;;;6149384;29;20380;-75
2021/08/10 00:37:15;;;;;;;7.47;1.77;;;23.60;54.00;;;;;;6151435;28;20039;-75
2021/08/10 00:40:19;;;;;;;5.53;1.88;;;23.60;54.20;;;;;;6142765;28;20121;-75
2021/08/10 00:43:34;;;;;;;3.83;1.90;;;23.60;54.40;;;;;;6158685;28;20031;-75
2021/08/10 00:46:37;;;;;;;2.50;1.60;;;23.60;54.40;;;;;;6155872;28;20089;-75
2021/08/10 00:49:39;;;;;;;3.40;1.80;;;23.50;54.20;;;;;;6157138;28;20039;-75
2021/08/10 00:52:44;;;;;;;3.13;1.70;;;23.50;54.20;;;;;;6140246;28;20039;-75
2021/08/10 00:55:46;;;;;;;7.03;1.90;;;23.50;54.10;;;;;;6157274;28;20045;-75
2021/08/10 00:58:47;;;;;;;8.25;1.80;;;23.50;54.10;;;;;;6157581;28;20473;-75
2021/08/10 01:01:50;;;;;;;5.55;2.17;;;23.40;54.10;;;;;;6140270;28;20035;-75
2021/08/10 01:04:52;;;;;;;3.58;1.75;;;23.40;54.10;;;;;;6141105;28;20452;-75
2021/08/10 01:08:27;;;;;;;6.13;2.40;;;23.30;54.20;;;;;;6156869;28;20468;-76
2021/08/10 01:12:15;;;;;;;4.35;1.88;;;23.30;54.30;;;;;;6141690;28;20034;-75
2021/08/10 01:15:22;;;;;;;4.32;1.48;;;23.20;54.30;;;;;;6081891;29;20040;-75
2021/08/10 01:18:33;;;;;;;6.95;1.90;;;23.20;54.40;;;;;;6098548;29;20088;-75
2021/08/10 01:21:44;;;;;;;3.20;1.83;;;23.10;54.60;;;;;;6098243;29;20047;-75
2021/08/10 01:24:55;;;;;;;8.13;1.70;;;23.00;54.70;;;;;;6109505;29;20044;-74
2021/08/10 01:28:37;;;;;;;3.70;1.92;;;23.00;55.00;;;;;;6122560;29;20036;-73
2021/08/10 01:31:42;;;;;;;2.10;1.35;;;22.90;55.50;;;;;;6118466;29;20051;-75
2021/08/10 01:34:48;;;;;;;2.47;1.52;;;22.80;55.70;;;;;;6089171;29;20184;-74
2021/08/10 01:37:58;;;;;;;4.95;2.00;;;22.70;55.90;;;;;;6072055;29;20377;-73
2021/08/10 01:41:00;;;;;;;7.30;1.98;;;22.70;56.20;;;;;;6104295;29;20055;-73
2021/08/10 01:44:04;;;;;;;2.65;1.50;;;22.70;56.40;;;;;;6089229;29;20044;-74
2021/08/10 01:47:08;;;;;;;7.63;2.00;;;22.60;56.60;;;;;;6073910;29;20051;-74
2021/08/10 01:50:11;;;;;;;4.18;1.80;;;22.50;56.70;;;;;;6107276;28;20032;-74
2021/08/10 01:53:18;;;;;;;;;;;22.50;56.80;;;;;;6163037;28;20089;-74
2021/08/10 01:56:20;;;;;;;4.75;1.70;;;22.50;56.90;;;;;;6160430;28;19914;-74
2021/08/10 01:59:23;;;;;;;4.65;2.47;;;22.50;56.70;;;;;;6160844;28;20126;-74
2021/08/10 02:02:25;;;;;;;9.60;2.60;;;22.40;56.80;;;;;;6175581;28;20027;-74
2021/08/10 02:05:43;;;;;;;6.28;2.15;;;22.30;56.90;;;;;;6176161;28;20038;-74
2021/08/10 02:08:52;;;;;;;4.30;1.80;;;22.30;57.00;;;;;;6160938;28;20110;-74
2021/08/10 02:11:57;;;;;;;6.93;2.30;;;22.30;57.00;;;;;;6176513;28;20078;-74
2021/08/10 02:15:04;;;;;;;3.42;1.85;;;22.30;56.90;;;;;;6176434;28;20030;-74
2021/08/10 02:18:18;;;;;;;7.28;2.05;;;22.20;56.90;;;;;;6175952;28;20125;-74
2021/08/10 02:21:47;;;;;;;4.80;1.80;;;22.20;56.80;;;;;;6160821;28;20042;-74
2021/08/10 02:24:52;;;;;;;8.85;1.90;;;22.20;56.80;;;;;;6159585;28;20114;-74
2021/08/10 02:28:01;;;;;;;3.70;2.03;;;22.10;56.90;;;;;;6175829;28;20062;-74
2021/08/10 02:31:03;;;;;;;7.40;1.73;;;22.10;57.00;;;;;;6176021;28;20027;-75
2021/08/10 02:34:14;;;;;;;3.65;1.80;;;22.10;57.20;;;;;;6174866;28;20042;-76
2021/08/10 02:37:18;;;;;;;3.78;1.88;;;22.10;57.40;;;;;;6175720;28;20043;-75
2021/08/10 02:40:23;;;;;;;7.68;2.10;;;22.00;57.60;;;;;;6183908;28;20452;-76
2021/08/10 02:43:27;;;;;;;7.22;1.80;;;22.00;57.80;;;;;;6200766;28;20039;-75
2021/08/10 02:46:29;;;;;;;4.05;1.95;;;22.00;57.90;;;;;;6183721;28;20455;-75
2021/08/10 02:49:34;;;;;;;3.00;1.67;;;21.90;57.80;;;;;;6183574;28;20026;-76
2021/08/10 02:52:35;;;;;;;4.13;1.80;;;21.90;57.80;;;;;;6183219;28;20053;-76
2021/08/10 02:55:43;;;;;;;4.53;1.95;;;21.90;57.80;;;;;;6182510;28;20097;-75
2021/08/10 02:58:53;;;;;;;2.60;1.88;;;21.90;57.90;;;;;;6200275;28;20468;-75
2021/08/10 03:02:17;;;;;;;4.38;1.92;;;21.80;57.80;;;;;;6166007;28;20026;-76
2021/08/10 03:05:21;;;;;;;3.25;1.80;;;21.80;58.00;;;;;;6167064;28;20033;-75
2021/08/10 03:08:28;;;;;;;6.00;2.00;;;21.70;58.00;;;;;;6183064;28;20448;-76
2021/08/10 03:11:33;;;;;;;4.85;1.90;;;21.70;58.00;;;;;;6182922;28;20034;-74
2021/08/10 03:14:36;;;;;;;4.15;2.30;;;21.70;58.10;;;;;;6167271;28;20053;-74
2021/08/10 03:17:39;;;;;;;6.32;2.10;;;21.70;58.10;;;;;;6181665;28;20494;-74
2021/08/10 03:20:44;;;;;;;2.92;1.77;;;21.60;58.20;;;;;;6183250;28;20034;-74
2021/08/10 03:23:47;;;;;;;9.75;2.30;;;21.50;58.30;;;;;;6181867;28;20058;-74
2021/08/10 03:26:51;;;;;;;4.63;1.70;;;21.50;58.40;;;;;;6199154;28;20069;-75
2021/08/10 03:29:54;;;;;;;2.92;1.60;;;21.50;58.60;;;;;;6182422;28;20118;-75
2021/08/10 03:32:56;;;;;;;2.55;1.70;;;21.40;58.50;;;;;;6181483;28;20026;-74
2021/08/10 03:35:59;;;;;;;3.03;1.92;;;21.50;58.60;;;;;;6167067;28;20085;-75
2021/08/10 03:39:03;;;;;;;4.20;1.80;;;21.50;58.70;;;;;;6143809;28;20050;-75
2021/08/10 03:42:05;;;;;;;7.63;2.20;;;21.40;58.70;;;;;;6152855;28;20031;-74
2021/08/10 03:45:07;;;;;;;3.92;2.25;;;21.40;58.70;;;;;;6153100;28;20035;-74
2021/08/10 03:48:09;;;;;;;3.72;2.05;;;21.40;58.70;;;;;;6151499;28;20070;-74
2021/08/10 03:51:12;;;;;;;5.50;2.15;;;21.40;58.70;;;;;;6152849;28;20035;-74
2021/08/10 03:54:14;;;;;;;4.18;1.98;;;21.40;58.70;;;;;;6151717;29;20035;-75
2021/08/10 03:57:20;;;;;;;6.65;2.25;;;21.40;58.80;;;;;;6151736;29;20040;-74
2021/08/10 04:00:22;;;;;;;2.85;1.73;;;21.30;58.80;;;;;;6150871;28;20361;-74
2021/08/10 04:03:31;;;;;;;5.90;2.17;;;21.40;58.90;;;;;;6149686;28;20035;-75
2021/08/10 04:06:33;;;;;;;11.13;1.95;;;21.40;58.90;;;;;;6135270;28;20377;-75
2021/08/10 04:09:37;;;;;;;4.80;2.42;;;21.40;58.90;;;;;;6151223;28;20074;-74
2021/08/10 04:12:42;;;;;;;6.63;2.30;;;21.40;58.90;;;;;;6151672;28;20346;-75
2021/08/10 04:15:46;;;;;;;6.38;2.30;;;21.40;58.90;;;;;;6151298;28;20035;-74
2021/08/10 04:18:48;;;;;;;8.10;2.28;;;21.40;59.00;;;;;;6151251;28;20031;-74
2021/08/10 04:21:49;;;;;;;4.38;2.15;;;21.40;59.10;;;;;;6135524;28;20039;-75
2021/08/10 04:24:51;;;;;;;3.30;2.10;;;21.40;59.10;;;;;;6151178;28;20035;-74
2021/08/10 04:27:52;;;;;;;3.38;2.03;;;21.40;59.20;;;;;;6151050;28;20040;-74
2021/08/10 04:30:54;;;;;;;5.20;2.42;;;21.40;59.20;;;;;;6135046;28;20035;-74
2021/08/10 04:33:58;;;;;;;3.42;1.75;;;21.40;59.30;;;;;;6149771;28;20039;-74
2021/08/10 04:36:59;;;;;;;6.13;2.17;;;21.40;59.30;;;;;;6134645;28;20047;-74
2021/08/10 04:40:00;;;;;;;8.65;2.40;;;21.40;59.40;;;;;;6150381;28;20098;-74
2021/08/10 04:43:39;;;;;;;5.57;2.43;;;21.50;59.40;;;;;;6101022;29;20066;-74
2021/08/10 04:46:40;;;;;;;10.68;2.40;;;21.50;59.20;;;;;;6085615;29;20279;-74
2021/08/10 04:49:51;;;;;;;6.53;2.03;;;21.50;59.10;;;;;;6092275;29;20060;-74
2021/08/10 04:52:52;;;;;;;5.18;1.67;;;21.40;59.00;;;;;;6084723;29;20644;-74
2021/08/10 04:55:55;;;;;;;4.68;1.70;;;21.50;58.90;;;;;;6101114;29;20040;-74
2021/08/10 04:58:56;;;;;;;7.38;2.47;;;21.50;58.90;;;;;;6085032;29;20044;-74
2021/08/10 05:02:00;;;;;;;7.70;2.00;;;21.50;58.90;;;;;;6088965;29;20419;-73
2021/08/10 05:05:01;;;;;;;4.28;2.17;;;21.50;58.80;;;;;;6105494;29;20450;-74
2021/08/10 05:08:04;;;;;;;9.65;2.83;;;21.50;58.90;;;;;;6089700;29;20044;-73
2021/08/10 05:11:12;;;;;;;6.20;2.10;;;21.40;58.90;;;;;;6089676;29;20123;-75
2021/08/10 05:14:13;;;;;;;4.55;2.08;;;21.40;59.00;;;;;;6121378;28;20512;-73
2021/08/10 05:17:16;;;;;;;2.63;1.90;;;21.40;59.00;;;;;;6153886;28;20078;-73
2021/08/10 05:20:17;;;;;;;5.50;1.75;;;21.40;58.90;;;;;;6154015;28;20137;-74
2021/08/10 05:23:20;;;;;;;5.10;2.30;;;21.40;58.90;;;;;;6150239;28;20039;-74
2021/08/10 05:26:24;;;;;;;3.60;1.95;;;21.40;58.80;;;;;;6124003;29;20050;-76
2021/08/10 05:29:26;;;;;;;8.48;2.65;;;21.40;58.80;;;;;;6147833;28;20047;-74
2021/08/10 05:32:28;;;;;;;2.63;1.88;;;21.40;58.80;;;;;;6149181;28;20122;-74
2021/08/10 05:35:30;;;;;;;9.48;2.35;;;21.40;58.70;;;;;;6152718;28;20040;-75
2021/08/10 05:38:33;;;;;;;10.68;1.70;;;21.40;58.60;;;;;;6145035;28;20058;-74
2021/08/10 05:41:35;;;;;;;5.75;1.90;;;21.40;58.70;;;;;;6113331;29;20040;-74
2021/08/10 05:44:38;;;;;;;4.15;1.75;;;21.40;58.80;;;;;;6116479;29;20034;-74
2021/08/10 05:47:39;;;;;;;5.53;1.83;;;21.40;58.90;;;;;;6144989;29;20062;-75
2021/08/10 05:50:40;;;;;;;2.95;1.92;;;21.50;58.90;;;;;;6144993;29;20122;-75
2021/08/10 05:53:41;;;;;;;8.18;1.95;;;21.50;58.90;;;;;;6145190;29;20126;-75
2021/08/10 05:56:47;;;;;;;7.00;2.08;;;21.60;58.90;;;;;;6145214;29;20455;-75
2021/08/10 05:59:48;;;;;;;4.93;1.83;;;21.60;58.90;;;;;;6145189;29;20035;-75
2021/08/10 06:02:49;;;;;;;8.68;2.42;;;21.60;58.70;;;;;;6137194;28;20152;-74
2021/08/10 06:05:54;;;;;;;4.40;1.90;;;21.70;58.80;;;;;;6152585;28;20105;-75
2021/08/10 06:08:55;;;;;;;4.82;2.50;;;21.70;58.70;;;;;;6136645;28;20039;-75
2021/08/10 06:11:58;;;;;;;7.50;2.60;;;21.70;58.60;;;;;;6131208;28;20047;-74
2021/08/10 06:15:00;;;;;;;5.32;2.20;;;21.80;58.50;;;;;;6133173;28;20027;-74
2021/08/10 06:18:01;;;;;;;5.15;2.40;;;21.80;58.30;;;;;;6152566;28;20035;-74
2021/08/10 06:21:03;;;;;;;6.60;2.30;;;21.90;58.10;;;;;;6152449;28;20111;-74
2021/08/10 06:24:04;;;;;;;6.35;2.58;;;21.90;57.80;;;;;;6136771;28;20095;-75
2021/08/10 06:27:06;;;;;;;10.00;2.25;;;22.00;57.80;;;;;;6152923;28;20027;-75
2021/08/10 06:30:09;;;;;;;4.05;2.00;;;22.00;57.60;;;;;;6132786;28;20036;-75
2021/08/10 06:33:10;;;;;;;4.97;2.30;;;22.10;57.50;;;;;;6137804;28;20027;-76
2021/08/10 06:36:12;;;;;;;5.30;2.22;;;22.10;57.40;;;;;;6150028;28;20098;-75
2021/08/10 06:39:13;;;;;;;6.00;2.42;;;22.20;57.20;;;;;;6158361;28;20325;-75
2021/08/10 06:42:29;;;;;;;4.22;2.17;;;22.30;57.00;;;;;;6145240;28;20039;-76
2021/08/10 06:45:38;;;;;;;17.88;2.60;;;22.40;56.80;;;;;;6136940;28;20384;-75
2021/08/10 06:48:40;;;;;;;4.43;2.28;;;22.50;56.50;;;;;;6135461;28;20039;-76
2021/08/10 06:51:41;;;;;;;3.25;2.00;;;22.60;56.40;;;;;;6135677;28;20059;-74
2021/08/10 06:54:46;;;;;;;7.13;2.67;;;22.70;56.30;;;;;;6134471;28;20122;-75
2021/08/10 06:57:47;;;;;;;8.75;1.98;;;22.80;56.10;;;;;;6119794;28;20348;-75
2021/08/10 07:00:48;;;;;;;3.40;1.90;;;22.80;55.70;;;;;;6119404;28;20027;-74
2021/08/10 07:03:50;;;;;;;3.22;2.10;;;22.90;55.60;;;;;;6152491;28;20101;-75
2021/08/10 07:06:53;;;;;;;6.13;2.28;;;23.00;55.40;;;;;;6160584;28;20105;-75
2021/08/10 07:09:55;;;;;;;8.48;2.13;;;23.10;55.30;;;;;;6158846;28;20130;-75
2021/08/10 07:12:56;;;;;;;4.40;2.42;;;23.20;55.10;;;;;;6158862;28;20367;-75
2021/08/10 07:15:57;;;;;;;4.93;2.80;;;23.30;54.90;;;;;;6142417;28;20030;-75
2021/08/10 07:19:00;;;;;;;4.55;2.42;;;23.30;54.30;;;;;;6158884;28;20368;-74
2021/08/10 07:22:01;;;;;;;4.45;2.10;;;23.40;54.10;;;;;;6158163;28;20035;-75
2021/08/10 07:25:06;;;;;;;3.90;2.20;;;23.40;53.90;;;;;;6143522;28;20126;-75
2021/08/10 07:28:08;;;;;;;3.78;2.05;;;23.50;53.60;;;;;;6142514;28;20111;-75
2021/08/10 07:31:10;;;;;;;6.53;2.10;;;23.50;53.50;;;;;;6158108;28;20035;-75
2021/08/10 07:34:11;;;;;;;2.72;1.80;;;23.60;53.30;;;;;;6157372;28;20467;-75
2021/08/10 07:37:15;;;;;;;5.75;2.13;;;23.80;53.00;;;;;;6142779;28;20167;-75
2021/08/10 07:40:16;;;;;;;9.52;2.38;;;23.80;52.50;;;;;;6158322;28;20121;-75
2021/08/10 07:43:19;;;;;;;3.65;1.75;;;23.90;52.30;;;;;;6158167;28;20054;-75
2021/08/10 07:46:21;;;;;;;7.75;2.55;;;24.00;52.20;;;;;;6141959;28;20114;-75
2021/08/10 07:49:22;;;;;;;5.47;2.33;;;24.10;51.80;;;;;;6142162;28;20042;-75
2021/08/10 07:52:24;;;;;;;9.15;2.38;;;24.20;51.40;;;;;;6142185;28;20097;-75
2021/08/10 07:55:25;;;;;;;3.60;2.10;;;24.40;51.20;;;;;;6141762;28;20066;-76
2021/08/10 07:58:27;;;;;;;6.47;2.78;;;24.50;50.70;;;;;;6141866;28;20421;-76
2021/08/10 08:01:28;;;;;;;4.70;2.35;;;24.70;50.40;;;;;;6173555;28;20039;-76
2021/08/10 08:04:29;;;;;;;6.95;2.70;;;24.80;50.00;;;;;;6155725;28;20440;-75
2021/08/10 08:07:31;;;;;;;6.90;1.80;;;24.90;49.60;;;;;;6157662;28;20112;-75
2021/08/10 08:10:32;;;;;;;11.52;2.40;;;25.00;49.10;;;;;;6157576;28;20472;-75
2021/08/10 08:13:34;;;;;;;5.13;2.28;;;25.20;48.50;;;;;;6157782;28;20078;-74
2021/08/10 08:16:36;;;;;;;5.35;1.90;;;25.30;48.30;;;;;;6141604;28;20049;-75
2021/08/10 08:19:37;;;;;;;4.28;2.42;;;25.50;47.40;;;;;;6158862;28;20387;-75
2021/08/10 08:22:39;;;;;;;4.60;2.22;;;25.50;46.50;;;;;;6158484;28;20457;-75
2021/08/10 08:25:40;;;;;;;3.50;2.13;;;25.60;46.00;;;;;;6157509;28;20027;-75
2021/08/10 08:28:42;;;;;;;2.70;1.83;;;25.60;45.70;;;;;;6158726;28;20114;-75
2021/08/10 08:31:45;;;;;;;5.63;2.20;;;25.70;45.50;;;;;;6156720;28;20035;-75
2021/08/10 08:34:46;;;;;;;3.95;2.10;;;25.90;45.30;;;;;;6143570;28;20035;-76
2021/08/10 08:37:47;;;;;;;6.43;2.00;;;26.00;44.80;;;;;;6146665;28;20039;-75
2021/08/10 08:40:48;;;;;;;12.43;2.40;;;26.00;44.90;;;;;;6162983;28;20464;-76
2021/08/10 08:43:51;;;;;;;3.42;2.08;;;26.20;45.90;;;;;;6159697;28;20465;-75
2021/08/10 08:46:54;;;;;;;5.13;2.40;;;26.30;45.10;;;;;;6163030;28;20038;-76
2021/08/10 08:49:57;;;;;;;3.88;2.13;;;26.50;45.40;;;;;;6180055;28;20431;-76
2021/08/10 08:53:03;;;;;;;2.85;1.83;;;26.60;44.20;;;;;;6162731;28;20058;-76
2021/08/10 08:56:05;;;;;;;3.85;2.13;;;26.70;43.60;;;;;;6162234;28;20039;-76
2021/08/10 08:59:07;;;;;;;5.40;2.72;;;26.70;43.10;;;;;;6179410;28;20043;-76
2021/08/10 09:02:17;;;;;;;8.45;4.30;;;27.00;43.20;;;;;;6145948;28;20042;-76
2021/08/10 09:05:18;;;;;;;10.63;5.00;;;27.00;42.90;;;;;;6162405;28;20066;-76
2021/08/10 09:08:27;;;;;;;3.97;2.83;;;27.20;42.50;;;;;;6162903;28;20039;-75
2021/08/10 09:11:29;;;;;;;5.40;2.55;;;27.20;42.00;;;;;;6154037;28;20055;-74
2021/08/10 09:14:51;;;;;;;6.03;3.03;;;27.30;42.10;;;;;;6138658;28;20058;-74
2021/08/10 09:18:21;;;;;;;4.60;2.00;;;27.30;42.50;;;;;;6153460;28;20031;-74
2021/08/10 09:21:36;;;;;;;3.40;2.00;;;27.30;42.60;;;;;;6153887;28;20043;-75
2021/08/10 09:25:06;;;;;;;4.05;2.10;;;27.40;42.70;;;;;;6139477;28;20315;-74
2021/08/10 09:28:09;;;;;;;5.82;1.85;;;27.50;42.60;;;;;;6153714;28;20054;-74
2021/08/10 09:31:48;;;;;;;7.70;2.38;;;27.50;42.40;;;;;;6154410;28;20094;-74
2021/08/10 09:35:16;;;;;;;3.78;1.90;;;27.50;42.70;;;;;;6018852;29;20459;-75
2021/08/10 09:38:18;;;;;;;7.07;2.38;;;27.60;42.60;;;;;;6034670;29;20053;-75
2021/08/10 09:41:21;;;;;;;4.40;2.20;;;27.60;42.60;;;;;;6034403;29;20068;-75
2021/08/10 09:44:22;;;;;;;9.07;4.78;;;27.70;42.70;;;;;;6019267;29;20038;-74
2021/08/10 09:47:35;;;;;;;8.98;2.13;;;27.80;42.60;;;;;;6018899;29;20053;-75
2021/08/10 09:50:36;;;;;;;16.55;6.13;;;27.90;42.60;;;;;;6019487;29;20150;-75
2021/08/10 09:53:37;;;;;;;8.70;4.72;;;28.00;42.30;;;;;;6034515;29;20046;-75
2021/08/10 09:56:49;;;;;;;5.22;2.20;;;28.10;42.20;;;;;;6034364;29;20134;-76
2021/08/10 09:59:50;;;;;;;9.48;2.95;;;28.20;42.20;;;;;;6034914;29;20080;-75
2021/08/10 10:03:29;;;;;;;3.33;2.15;;;28.30;41.90;;;;;;6028770;29;20029;-77
2021/08/10 10:06:41;;;;;;;4.45;2.33;;;28.30;40.80;;;;;;6023191;29;20107;-74
2021/08/10 10:09:43;;;;;;;6.88;3.17;;;28.50;40.10;;;;;;6102696;28;20117;-75
2021/08/10 10:12:48;;;;;;;10.27;5.30;;;28.60;39.00;;;;;;6169442;28;20114;-74
2021/08/10 10:15:50;;;;;;;12.13;5.85;;;28.60;38.50;;;;;;6169642;28;20033;-74
2021/08/10 10:18:53;;;;;;;14.45;4.40;;;28.60;38.10;;;;;;6176599;28;20448;-76
2021/08/10 10:21:59;;;;;;;4.30;1.77;;;28.70;38.30;;;;;;6157917;28;20041;-75
2021/08/10 10:25:02;;;;;;;8.80;4.50;;;28.80;38.10;;;;;;6142969;28;20034;-75
2021/08/10 10:28:04;;;;;;;5.85;2.58;;;28.90;37.70;;;;;;6175740;28;20042;-76
2021/08/10 10:31:05;;;;;;;4.13;2.35;;;28.90;37.50;;;;;;6141712;28;20050;-75
2021/08/10 10:34:06;;;;;;;3.45;2.10;;;29.10;37.30;;;;;;6132826;28;20031;-75
2021/08/10 10:37:07;;;;;;;5.93;1.85;;;29.20;36.50;;;;;;6172108;28;20046;-75
2021/08/10 10:40:11;;;;;;;10.55;2.47;;;29.30;36.60;;;;;;6157785;28;20101;-77
2021/08/10 10:43:13;;;;;;;12.25;4.65;;;29.30;36.90;;;;;;6175214;28;20046;-75
2021/08/10 10:46:32;;;;;;;13.30;4.38;;;29.40;37.30;;;;;;6175345;28;20034;-75
2021/08/10 10:49:37;;;;;;;2.75;1.90;;;29.50;37.40;;;;;;6158619;28;20045;-75
2021/08/10 10:52:39;;;;;;;9.60;4.93;;;29.50;36.90;;;;;;6157962;28;20034;-75
2021/08/10 10:55:42;;;;;;;4.75;2.60;;;29.60;36.80;;;;;;6159006;28;20131;-75
2021/08/10 10:58:43;;;;;;;5.53;2.72;;;29.60;35.80;;;;;;6157327;28;20070;-74
2021/08/10 11:01:44;;;;;;;7.90;3.97;;;30.20;34.80;;;;;;6157953;28;20100;-74
2021/08/10 11:05:04;;;;;;;11.02;6.03;;;31.00;33.20;;;;;;6158861;28;20045;-75
2021/08/10 11:08:06;;;;;;;4.63;2.47;;;31.80;32.00;;;;;;6158154;28;20248;-74
2021/08/10 11:11:27;;;;;;;4.35;2.25;;;32.60;30.70;;;;;;6175818;28;20516;-74
2021/08/10 11:14:37;;;;;;;10.82;4.63;;;33.30;29.60;;;;;;6175981;28;20042;-74
2021/08/10 11:17:39;;;;;;;8.52;3.88;;;34.00;28.50;;;;;;6158676;28;20114;-74
2021/08/10 11:20:41;;;;;;;7.55;2.42;;;34.40;28.10;;;;;;6175697;28;20141;-75
2021/08/10 11:23:42;;;;;;;3.28;2.10;;;34.50;27.80;;;;;;6182553;28;20496;-74
2021/08/10 11:26:43;;;;;;;7.72;2.30;;;34.80;27.90;;;;;;6199613;28;20481;-75
2021/08/10 11:29:44;;;;;;;2.47;1.70;;;35.20;27.80;;;;;;6182203;28;20054;-75
2021/08/10 11:32:48;;;;;;;5.53;1.90;;;35.50;27.70;;;;;;6189501;28;20500;-75
2021/08/10 11:35:49;;;;;;;4.03;1.77;;;35.90;27.70;;;;;;6200104;28;20101;-75
2021/08/10 11:38:51;;;;;;;5.97;1.95;;;36.30;27.60;;;;;;6182798;28;20050;-75
2021/08/10 11:41:52;;;;;;;3.00;1.65;;;36.60;27.20;;;;;;6182821;28;20368;-75
2021/08/10 11:44:57;;;;;;;5.65;1.98;;;36.80;26.90;;;;;;6200102;28;20045;-75
2021/08/10 11:48:00;;;;;;;6.05;2.20;;;36.80;26.60;;;;;;6166699;28;20165;-75
2021/08/10 11:51:25;;;;;;;6.68;1.95;;;36.60;26.90;;;;;;6182849;28;20376;-75
2021/08/10 11:54:26;;;;;;;4.03;2.17;;;36.50;27.20;;;;;;6199851;28;20086;-76
2021/08/10 11:57:27;;;;;;;5.40;2.25;;;36.60;27.30;;;;;;6183226;28;20448;-75
2021/08/10 12:00:30;;;;;;;3.67;2.05;;;36.90;27.10;;;;;;6182820;28;20046;-76
2021/08/10 12:03:31;;;;;;;3.72;2.05;;;37.00;26.80;;;;;;6182733;28;20428;-76
2021/08/10 12:06:32;;;;;;;6.60;2.13;;;37.20;26.70;;;;;;6183255;28;20432;-75
2021/08/10 12:09:43;;;;;;;4.32;1.85;;;37.40;26.50;;;;;;6199810;28;20049;-74
2021/08/10 12:12:44;;;;;;;6.90;2.13;;;37.50;26.50;;;;;;6182922;28;20379;-75
2021/08/10 12:15:45;;;;;;;4.10;1.90;;;37.80;26.30;;;;;;6182574;28;20038;-74
2021/08/10 12:18:48;;;;;;;8.32;2.10;;;37.90;25.90;;;;;;6166215;28;20042;-75
2021/08/10 12:21:49;;;;;;;3.95;2.40;;;38.40;25.90;;;;;;6182385;28;20052;-75
2021/08/10 12:24:54;;;;;;;4.00;2.13;;;38.70;25.70;;;;;;6166333;28;20126;-75
2021/08/10 12:28:07;;;;;;;7.38;2.05;;;39.10;25.30;;;;;;6182500;28;20038;-75
2021/08/10 12:31:09;;;;;;;3.05;2.00;;;39.40;24.90;;;;;;6198668;28;20034;-75
2021/08/10 12:34:10;;;;;;;2.65;1.70;;;39.70;24.60;;;;;;6179778;28;20034;-75
2021/08/10 12:37:11;;;;;;;2.78;1.80;;;39.90;24.20;;;;;;6148185;28;20046;-75
2021/08/10 12:40:21;;;;;;;3.72;1.80;;;40.20;24.00;;;;;;6156635;28;20046;-75
2021/08/10 12:43:22;;;;;;;2.53;1.80;;;40.30;24.00;;;;;;6173203;28;20075;-75
2021/08/10 12:46:44;;;;;;;11.52;1.92;;;40.50;23.70;;;;;;6156530;28;20074;-76
2021/08/10 12:49:46;;;;;;;3.03;1.63;;;40.90;23.30;;;;;;6157041;28;20329;-76
2021/08/10 12:52:59;;;;;;;2.88;2.05;;;41.50;22.70;;;;;;6141418;28;20055;-76
2021/08/10 12:56:02;;;;;;;5.53;2.05;;;42.00;22.30;;;;;;6157446;28;20063;-76
2021/08/10 12:59:03;;;;;;;5.40;1.85;;;42.50;22.00;;;;;;6158130;28;20034;-76
2021/08/10 13:02:05;;;;;;;3.38;1.85;;;43.00;21.70;;;;;;6158928;28;20057;-76
2021/08/10 13:05:08;;;;;;;6.18;2.00;;;43.50;21.50;;;;;;6180612;28;20073;-76
2021/08/10 13:08:10;;;;;;;4.88;1.77;;;43.90;21.10;;;;;;6198397;28;20037;-76
2021/08/10 13:11:21;;;;;;;3.58;2.15;;;44.40;20.60;;;;;;6197225;28;20070;-75
2021/08/10 13:14:22;;;;;;;2.63;2.00;;;44.80;20.30;;;;;;6180738;28;20100;-75
2021/08/10 13:17:31;;;;;;;5.47;2.17;;;45.00;19.90;;;;;;6180647;28;20428;-75
2021/08/10 13:20:32;;;;;;;7.45;1.88;;;45.40;19.80;;;;;;6181723;28;20352;-75
2021/08/10 13:23:38;;;;;;;5.60;1.88;;;45.80;19.50;;;;;;6185701;28;20049;-75
2021/08/10 13:26:46;;;;;;;3.80;2.00;;;46.40;19.20;;;;;;6200988;28;20038;-75
2021/08/10 13:29:48;;;;;;;7.57;2.30;;;47.00;18.90;;;;;;6183890;28;20106;-75
2021/08/10 13:33:09;;;;;;;5.40;2.53;;;47.40;18.60;;;;;;6184240;28;20030;-75
2021/08/10 13:36:10;;;;;;;2.60;1.88;;;47.80;18.30;;;;;;6201253;28;20042;-75
2021/08/10 13:39:12;;;;;;;2.72;2.28;;;48.20;18.00;;;;;;6185490;28;20057;-75
2021/08/10 13:42:16;;;;;;;5.30;2.95;;;48.70;17.80;;;;;;6185386;28;20088;-75
2021/08/10 13:45:23;;;;;;;7.18;2.28;;;49.10;17.50;;;;;;6170030;28;20125;-75
2021/08/10 13:48:24;;;;;;;4.57;1.70;;;49.40;17.30;;;;;;6185766;28;20050;-75
2021/08/10 13:51:26;;;;;;;1.92;1.65;;;49.60;17.30;;;;;;6168433;28;20034;-75
2021/08/10 13:54:27;;;;;;;4.20;1.73;;;49.90;17.00;;;;;;6201800;28;20432;-75
2021/08/10 13:57:28;;;;;;;2.83;2.30;;;50.20;16.80;;;;;;6184192;28;20038;-77
2021/08/10 14:00:29;;;;;;;3.70;1.85;;;50.30;16.90;;;;;;6168529;28;20413;-78
2021/08/10 14:03:33;;;;;;;7.22;1.95;;;50.50;16.80;;;;;;6183302;28;20034;-74
2021/08/10 14:06:34;;;;;;;6.22;2.05;;;50.50;16.60;;;;;;6200476;28;20117;-75
2021/08/10 14:09:35;;;;;;;5.35;1.83;;;50.60;16.60;;;;;;6184226;28;20038;-75
2021/08/10 14:12:37;;;;;;;4.53;1.58;;;50.70;16.50;;;;;;6184329;28;20050;-75
2021/08/10 14:15:39;;;;;;;4.68;2.83;;;50.60;16.50;;;;;;6201574;28;20062;-75
2021/08/10 14:18:40;;;;;;;2.85;1.88;;;50.70;16.40;;;;;;6184155;28;20041;-75
2021/08/10 14:21:41;;;;;;;2.50;1.85;;;50.70;16.30;;;;;;6183818;28;20034;-75
2021/08/10 14:24:42;;;;;;;2.75;1.73;;;50.80;16.40;;;;;;6183992;28;20034;-76
2021/08/10 14:27:43;;;;;;;3.58;1.90;;;50.90;16.30;;;;;;6183548;28;20490;-75
2021/08/10 14:30:44;;;;;;;6.65;2.17;;;50.80;16.20;;;;;;6200929;28;20041;-75
2021/08/10 14:33:45;;;;;;;3.90;2.15;;;50.70;16.30;;;;;;6182060;28;20042;-75
2021/08/10 14:36:46;;;;;;;4.70;1.58;;;50.60;16.40;;;;;;6184884;28;20211;-75
2021/08/10 14:39:48;;;;;;;5.30;1.60;;;50.50;16.30;;;;;;6180398;28;20054;-75
2021/08/10 14:42:49;;;;;;;6.28;2.15;;;50.30;16.50;;;;;;6184131;28;20096;-75
2021/08/10 14:45:50;;;;;;;7.30;1.98;;;49.10;17.00;;;;;;6160448;28;20053;-76
2021/08/10 14:48:51;;;;;;;5.22;2.08;;;47.70;17.90;;;;;;6200393;28;20375;-75
2021/08/10 14:51:52;;;;;;;3.47;2.67;;;46.30;18.80;;;;;;6167483;28;20034;-76
2021/08/10 14:54:53;;;;;;;12.52;2.42;;;45.00;19.60;;;;;;6200198;28;20045;-77
2021/08/10 14:57:54;;;;;;;2.90;1.73;;;43.90;20.40;;;;;;6200070;28;20034;-76
2021/08/10 15:00:55;;;;;;;5.30;2.05;;;42.70;21.40;;;;;;6183192;28;20117;-76
2021/08/10 15:03:57;;;;;;;2.72;1.98;;;41.70;21.70;;;;;;6198619;28;20044;-76
2021/08/10 15:06:58;;;;;;;3.92;2.25;;;40.80;22.40;;;;;;6182744;28;20045;-76
2021/08/10 15:09:59;;;;;;;3.53;2.40;;;40.00;23.20;;;;;;6166685;28;20031;-75
2021/08/10 15:13:00;;;;;;;3.35;2.15;;;39.20;23.80;;;;;;6182613;28;20085;-76
2021/08/10 15:16:01;;;;;;;5.93;2.00;;;38.60;24.40;;;;;;6182630;28;20081;-76
2021/08/10 15:19:02;;;;;;;4.85;2.15;;;38.00;25.20;;;;;;6199710;28;20027;-75
2021/08/10 15:22:04;;;;;;;6.80;1.77;;;37.60;25.60;;;;;;6199868;28;20149;-75
2021/08/10 15:25:05;;;;;;;2.10;1.50;;;37.20;25.90;;;;;;6181044;28;20030;-75
2021/08/10 15:28:06;;;;;;;6.40;2.22;;;36.90;26.30;;;;;;6198865;28;20190;-76
2021/08/10 15:31:07;;;;;;;4.70;1.80;;;36.70;26.40;;;;;;6182208;28;20141;-75
2021/08/10 15:34:11;;;;;;;5.05;1.77;;;36.50;26.40;;;;;;6180752;28;20050;-75
2021/08/10 15:37:12;;;;;;;5.68;2.35;;;36.50;26.40;;;;;;6181013;28;20034;-75
2021/08/10 15:40:14;;;;;;;5.28;1.67;;;37.00;26.10;;;;;;6151645;28;20039;-76
2021/08/10 15:43:15;;;;;;;4.30;1.92;;;38.40;25.20;;;;;;6150450;28;20031;-75
2021/08/10 15:46:17;;;;;;;3.53;2.45;;;40.10;24.20;;;;;;6143018;28;20035;-76
2021/08/10 15:49:18;;;;;;;7.03;2.00;;;41.60;22.70;;;;;;6150462;28;20043;-76
2021/08/10 15:52:20;;;;;;;3.10;1.90;;;42.90;21.60;;;;;;6150855;28;20436;-76
2021/08/10 15:55:21;;;;;;;2.50;1.60;;;44.00;20.60;;;;;;6150156;28;20094;-76
2021/08/10 15:58:22;;;;;;;3.22;2.00;;;44.80;20.00;;;;;;6151023;28;20424;-77